• Join FlightAware (Why Join?)
  • Login
  • US Flag 
02:16AM EDT


 

Airport Tracker/Info


-or-


 

Live Flight TrackerFlight Track Log ✈ N43755 ✈ 02-May-2013 ✈ KSVM - KAXV

Flight Track Log - Related Links

Times and Time Zones

All times are in EDT time to prevent confusion due to time zone crossing. See the N43755 flight status page for this flight to view local times or setup timezone preferences in your user account.

Time Position Orientation Groundspeed Altitude Reporting Facility
EDT Latitude Longitude Course Direction KTS MPH feet Rate Location/Type
10:28PM -19.9914 -160.0124 127° Southeast  Level Estimated
10:29PM -19.9703 -159.9880 48° Northeast  Level Estimated
10:30PM -19.9493 -159.9635 48° Northeast  Level Estimated
10:31PM -19.9283 -159.9391 48° Northeast  Level Estimated
10:32PM -19.9072 -159.9147 48° Northeast  Level Estimated
10:33PM -19.8862 -159.8903 48° Northeast  Level Estimated
10:34PM -19.8652 -159.8659 47° Northeast  Level Estimated
10:35PM -19.8441 -159.8415 47° Northeast  Level Estimated
10:36PM -19.8231 -159.8171 47° Northeast  Level Estimated
10:37PM -19.8020 -159.7927 47° Northeast  Level Estimated
10:37PM 41.4017 -83.9461 47° Northeast 97 112 6,500  Level Indianapolis Center
10:38PM -19.7810 -159.7683 47° Northeast  Level Estimated
10:38PM 41.3775 -83.9556 196° South 95 109 6,500  Level Indianapolis Center
10:39PM -19.7600 -159.7440 47° Northeast  Level Estimated
10:39PM 41.3508 -83.9708 203° Southwest 95 109 6,400  Level Indianapolis Center
10:40PM -19.7389 -159.7196 47° Northeast  Level Estimated
10:41PM -19.7178 -159.6952 47° Northeast  Level Estimated
10:41PM 41.3272 -83.9847 204° Southwest 98 113 6,400  Level Indianapolis Center
10:42PM -19.6968 -159.6709 47° Northeast  Level Estimated
10:42PM 41.3019 -83.9975 201° Southwest 92 106 6,400  Level Indianapolis Center
10:43PM -19.6757 -159.6465 47° Northeast  Level Estimated
10:43PM 41.2756 -84.0061 194° South 90 104 6,500  Level Indianapolis Center
10:44PM 41.2503 -84.0111 188° South 90 104 6,400 -60 Descending Indianapolis Center
10:45PM 41.2258 -84.0200 195° South 92 106 6,400  Level Indianapolis Center
10:46PM 41.2056 -84.0322 204° Southwest 93 107 6,400  Level Indianapolis Center
10:47PM 41.1781 -84.0414 194° South 89 102 6,500  Climbing Indianapolis Center
10:48PM 41.1528 -84.0456 187° South 89 102 6,400 -60 Descending Indianapolis Center
10:49PM 41.1278 -84.0531 193° South 91 105 6,400  Level Indianapolis Center
10:50PM 41.1039 -84.0636 198° South 90 104 6,400  Level Indianapolis Center
10:51PM 41.0797 -84.0792 206° Southwest 95 109 6,400  Level Indianapolis Center
10:52PM 41.0550 -84.0936 204° Southwest 97 112 6,400  Level Indianapolis Center
10:53PM 41.0289 -84.1036 196° South 92 106 6,400  Level Indianapolis Center
10:54PM 41.0039 -84.1067 185° South 89 102 6,400  Level Indianapolis Center
10:55PM 40.9803 -84.1164 197° South 89 102 6,400  Level Indianapolis Center
10:56PM 40.9569 -84.1256 197° South 88 101 6,500  Climbing Indianapolis Center
10:57PM 40.9322 -84.1297 187° South 88 101 6,500  Level Indianapolis Center
10:58PM 40.9061 -84.1328 185° South 91 105 6,500  Level Indianapolis Center
10:59PM 40.8806 -84.1464 202° Southwest 96 110 6,500 -60 Level Indianapolis Center
11:00PM 40.8539 -84.1578 198° South 99 114 6,400  Descending Indianapolis Center
11:01PM 40.8281 -84.1656 193° South 95 109 6,500  Climbing Indianapolis Center
11:02PM 40.8025 -84.1761 197° South 95 109 6,500  Level Indianapolis Center
11:03PM 40.7769 -84.1886 200° South 96 110 6,500  Level Indianapolis Center
11:04PM 40.7497 -84.2022 201° Southwest 101 116 6,500  Level Indianapolis Center
11:05PM 40.7222 -84.2111 194° South 102 117 6,500 -120 Level Indianapolis Center
11:05PM 40.7075 -84.2158 194° South 102 117 6,400 -240 Descending Indianapolis Center
11:06PM 40.6903 -84.2219 195° South 100 115 6,300 -480 Descending Indianapolis Center
11:07PM 40.6628 -84.2264 187° South 103 119 5,700 -660 Descending Indianapolis Center
11:08PM 40.6317 -84.2378 196° South 105 121 5,000 -720 Descending Indianapolis Center
11:08PM 40.6194 -84.2453 205° Southwest 113 130 4,700 -840 Descending Indianapolis Center
11:09PM 40.6019 -84.2542 201° Southwest 109 125 4,200 -780 Descending Indianapolis Center
11:11PM 40.5211 -84.2819 194° South  Level FlightAware Approximate
11:18PM 40.4936 -84.2981 180° South  Level Estimated
11:19PM 40.4936 -84.2981 180° South  Level Estimated
11:20PM 40.4936 -84.2981 180° South  Level Estimated
11:21PM 40.4936 -84.2981 180° South  Level Estimated
11:22PM 40.4936 -84.2981 180° South  Level Estimated